createdAt,value
2023-03-21T00:00:40.055Z,8.50
2023-03-21T00:03:44.361Z,8.60
2023-03-21T00:06:47.676Z,8.60
2023-03-21T00:09:51.513Z,8.60
2023-03-21T00:12:58.553Z,8.70
2023-03-21T00:16:08.911Z,8.60
2023-03-21T00:19:15.882Z,8.50
2023-03-21T00:22:19.024Z,8.50
2023-03-21T00:25:22.306Z,8.40
2023-03-21T00:28:27.245Z,8.40
2023-03-21T00:31:30.502Z,8.40
2023-03-21T00:34:43.052Z,8.30
2023-03-21T00:37:52.303Z,8.30
2023-03-21T00:40:58.227Z,8.20
2023-03-21T00:44:04.990Z,8.20
2023-03-21T00:47:08.704Z,8.20
2023-03-21T00:50:13.017Z,8.30
2023-03-21T00:53:17.086Z,8.20
2023-03-21T00:56:20.534Z,8.30
2023-03-21T00:59:25.943Z,8.30
2023-03-21T01:02:29.071Z,8.30
2023-03-21T01:05:53.304Z,8.20
2023-03-21T01:08:56.536Z,8.30
2023-03-21T01:11:59.891Z,8.20
2023-03-21T01:15:04.695Z,8.30
2023-03-21T01:18:07.886Z,8.20
2023-03-21T01:21:13.861Z,8.20
2023-03-21T01:24:17.158Z,8.20
2023-03-21T01:27:20.372Z,8.20
2023-03-21T01:30:31.253Z,8.20
2023-03-21T01:33:35.951Z,8.20
2023-03-21T01:36:39.352Z,8.20
2023-03-21T01:39:46.985Z,8.20
2023-03-21T01:42:50.612Z,8.00
2023-03-21T01:46:45.394Z,8.10
2023-03-21T01:50:12.776Z,8.10
2023-03-21T01:53:29.852Z,8.10
2023-03-21T01:56:36.461Z,8.10
2023-03-21T01:59:50.013Z,8.20
2023-03-21T02:03:29.782Z,8.10
2023-03-21T02:07:05.456Z,8.10
2023-03-21T02:10:19.037Z,8.10
2023-03-21T02:13:27.059Z,8.10
2023-03-21T02:16:39.004Z,8.10
2023-03-21T02:20:22.085Z,8.00
2023-03-21T02:23:55.496Z,8.00
2023-03-21T02:27:09.359Z,7.90
2023-03-21T02:30:50.886Z,7.90
2023-03-21T02:34:35.212Z,8.00
2023-03-21T02:37:51.980Z,7.90
2023-03-21T02:41:10.057Z,7.80
2023-03-21T02:44:22.188Z,7.80
2023-03-21T02:47:30.330Z,7.80
2023-03-21T02:50:38.056Z,7.80
2023-03-21T02:53:51.741Z,7.80
2023-03-21T02:57:01.730Z,7.80
2023-03-21T03:03:34.405Z,7.70
2023-03-21T03:06:50.368Z,7.70
2023-03-21T03:10:09.314Z,7.70
2023-03-21T03:16:40.600Z,7.70
2023-03-21T03:19:57.323Z,7.70
2023-03-21T03:23:08.513Z,7.60
2023-03-21T03:26:16.917Z,7.60
2023-03-21T03:29:22.676Z,7.60
2023-03-21T03:32:36.636Z,7.60
2023-03-21T03:35:39.909Z,7.60
2023-03-21T03:38:45.283Z,7.60
2023-03-21T03:42:25.530Z,7.60
2023-03-21T03:45:21.219Z,7.60
2023-03-21T03:48:34.805Z,7.60
2023-03-21T03:51:50.565Z,7.60
2023-03-21T03:55:12.128Z,7.50
2023-03-21T03:58:23.852Z,7.60
2023-03-21T04:01:29.085Z,7.60
2023-03-21T04:04:35.064Z,7.60
2023-03-21T04:07:38.415Z,7.60
2023-03-21T04:10:42.345Z,7.50
2023-03-21T04:13:46.550Z,7.50
2023-03-21T04:16:56.272Z,7.60
2023-03-21T04:20:11.512Z,7.50
2023-03-21T04:23:16.299Z,7.50
2023-03-21T04:26:22.302Z,7.50
2023-03-21T04:29:45.379Z,7.50
2023-03-21T04:33:15.894Z,7.50
2023-03-21T04:36:33.281Z,7.50
2023-03-21T04:39:38.330Z,7.50
2023-03-21T04:42:41.801Z,7.40
2023-03-21T04:45:45.247Z,7.40
2023-03-21T04:48:51.714Z,7.40
2023-03-21T04:51:56.336Z,7.40
2023-03-21T04:54:59.568Z,7.40
2023-03-21T04:58:03.075Z,7.40
2023-03-21T05:01:07.304Z,7.30
2023-03-21T05:04:11.095Z,7.30
2023-03-21T05:07:18.711Z,7.40
2023-03-21T05:10:26.512Z,7.40
2023-03-21T05:13:31.688Z,7.30
2023-03-21T05:16:36.318Z,7.30
2023-03-21T05:19:40.690Z,7.40
2023-03-21T05:22:50.096Z,7.40
2023-03-21T05:25:53.766Z,7.40
2023-03-21T05:29:08.485Z,7.50
2023-03-21T05:32:12.227Z,7.50
2023-03-21T05:35:15.601Z,7.60
2023-03-21T05:38:20.721Z,7.60
2023-03-21T05:41:27.445Z,7.60
2023-03-21T05:44:30.887Z,7.70
2023-03-21T05:47:35.311Z,7.70
2023-03-21T05:50:40.564Z,7.80
2023-03-21T05:53:53.330Z,7.90
2023-03-21T05:56:57.773Z,7.90
2023-03-21T06:00:17.101Z,7.90
2023-03-21T06:03:20.532Z,7.90
2023-03-21T06:06:42.049Z,7.90
2023-03-21T06:09:46.700Z,7.80
2023-03-21T06:12:50.017Z,7.90
2023-03-21T06:16:09.976Z,7.80
2023-03-21T06:19:13.994Z,7.80
2023-03-21T06:22:52.710Z,7.80
2023-03-21T06:25:57.416Z,7.80
2023-03-21T06:29:02.860Z,7.80
2023-03-21T06:32:07.495Z,8.00
2023-03-21T06:35:11.525Z,8.10
2023-03-21T06:38:15.030Z,8.20
2023-03-21T06:41:19.796Z,8.40
2023-03-21T06:44:32.721Z,8.40
2023-03-21T06:47:41.287Z,8.40
2023-03-21T06:50:53.179Z,8.40
2023-03-21T06:53:58.122Z,8.40
2023-03-21T06:57:09.397Z,8.30
2023-03-21T07:00:14.223Z,8.40
2023-03-21T07:03:23.500Z,8.60
2023-03-21T07:06:27.892Z,8.60
2023-03-21T07:09:31.624Z,8.60
2023-03-21T07:12:41.856Z,8.60
2023-03-21T07:16:00.513Z,8.60
2023-03-21T07:19:03.851Z,8.60
2023-03-21T07:22:07.056Z,8.60
2023-03-21T07:25:11.392Z,8.60
2023-03-21T07:28:17.731Z,8.50
2023-03-21T07:31:20.989Z,8.50
2023-03-21T07:34:24.940Z,8.60
2023-03-21T07:37:28.190Z,8.60
2023-03-21T07:40:33.726Z,8.60
2023-03-21T07:43:39.361Z,8.80
2023-03-21T07:46:46.239Z,8.80
2023-03-21T07:49:49.388Z,8.80
2023-03-21T07:52:52.630Z,8.90
2023-03-21T07:55:56.930Z,9.00
2023-03-21T07:59:01.500Z,9.00
2023-03-21T08:02:04.721Z,9.10
2023-03-21T08:05:08.194Z,9.10
2023-03-21T08:08:11.910Z,9.20
2023-03-21T08:11:15.466Z,9.20
2023-03-21T08:14:20.001Z,9.30
2023-03-21T08:17:23.170Z,9.40
2023-03-21T08:20:26.420Z,9.30
2023-03-21T08:23:29.715Z,9.40
2023-03-21T08:26:33.459Z,9.40
2023-03-21T08:29:42.187Z,9.50
2023-03-21T08:32:45.684Z,9.40
2023-03-21T08:35:49.278Z,9.30
2023-03-21T08:38:56.876Z,9.30
2023-03-21T08:42:00.122Z,9.50
2023-03-21T08:45:05.270Z,9.40
2023-03-21T08:48:08.514Z,9.40
2023-03-21T08:51:11.706Z,9.60
2023-03-21T08:54:21.422Z,9.80
2023-03-21T08:57:28.478Z,9.60
2023-03-21T09:00:33.065Z,9.70
2023-03-21T09:03:36.253Z,9.50
2023-03-21T09:06:41.034Z,9.70
2023-03-21T09:09:45.914Z,9.80
2023-03-21T09:12:52.764Z,9.80
2023-03-21T09:16:01.324Z,9.90
2023-03-21T09:19:04.631Z,10.00
2023-03-21T09:22:14.310Z,10.10
2023-03-21T09:25:18.852Z,10.20
2023-03-21T09:28:22.089Z,10.20
2023-03-21T09:31:28.635Z,10.10
2023-03-21T09:34:31.902Z,9.90
2023-03-21T09:37:42.230Z,9.70
2023-03-21T09:40:52.638Z,9.50
2023-03-21T09:44:12.564Z,9.30
2023-03-21T09:47:22.000Z,9.30
2023-03-21T09:50:31.965Z,9.20
2023-03-21T09:53:38.969Z,9.20
2023-03-21T09:56:43.912Z,9.20
2023-03-21T09:59:49.637Z,9.30
2023-03-21T10:02:59.816Z,9.40
2023-03-21T10:06:08.275Z,9.60
2023-03-21T10:09:16.626Z,9.80
2023-03-21T10:12:22.963Z,9.90
2023-03-21T10:15:28.598Z,9.90
2023-03-21T10:18:34.717Z,9.70
2023-03-21T10:21:59.627Z,9.60
2023-03-21T10:25:04.629Z,9.60
2023-03-21T10:28:10.717Z,9.40
2023-03-21T10:31:18.841Z,9.30
2023-03-21T10:34:29.813Z,9.30
2023-03-21T10:37:33.592Z,9.30
2023-03-21T10:40:36.801Z,9.40
2023-03-21T10:43:41.147Z,9.50
2023-03-21T10:46:53.519Z,9.60
2023-03-21T10:50:08.489Z,9.60
2023-03-21T10:53:19.254Z,9.50
2023-03-21T10:56:25.246Z,9.50
2023-03-21T10:59:34.508Z,9.60
2023-03-21T11:02:39.532Z,9.70
2023-03-21T11:05:44.586Z,9.90
2023-03-21T11:08:50.432Z,10.00
2023-03-21T11:11:55.926Z,10.40
2023-03-21T11:14:59.220Z,10.60
2023-03-21T11:18:15.570Z,10.70
2023-03-21T11:21:22.202Z,10.90
2023-03-21T11:24:29.002Z,11.00
2023-03-21T11:27:33.159Z,10.80
2023-03-21T11:30:36.576Z,10.70
2023-03-21T11:33:44.577Z,11.20
2023-03-21T11:36:52.368Z,11.20
2023-03-21T11:40:09.124Z,11.20
2023-03-21T11:43:30.660Z,11.20
2023-03-21T11:46:41.739Z,11.10
2023-03-21T11:49:45.064Z,11.40
2023-03-21T11:52:59.577Z,11.70
2023-03-21T11:56:17.048Z,11.60
2023-03-21T11:59:35.469Z,11.60
2023-03-21T12:02:58.075Z,11.70
2023-03-21T12:06:04.264Z,11.70
2023-03-21T12:09:29.410Z,11.70
2023-03-21T12:12:42.968Z,11.50
2023-03-21T12:15:55.631Z,11.50
2023-03-21T12:19:13.311Z,11.60
2023-03-21T12:22:28.928Z,11.70
2023-03-21T12:25:39.987Z,11.60
2023-03-21T12:28:55.151Z,11.40
2023-03-21T12:32:08.009Z,11.60
2023-03-21T12:35:22.542Z,11.70
2023-03-21T12:38:34.024Z,12.00
2023-03-21T12:41:44.918Z,12.10
2023-03-21T12:44:53.206Z,11.50
2023-03-21T12:48:01.925Z,11.50
2023-03-21T12:51:09.643Z,11.30
2023-03-21T12:54:22.535Z,11.60
2023-03-21T12:57:31.971Z,11.80
2023-03-21T13:00:39.803Z,12.50
2023-03-21T13:03:46.440Z,12.60
2023-03-21T13:06:51.914Z,12.10
2023-03-21T13:09:56.933Z,11.70
2023-03-21T13:13:10.142Z,11.00
2023-03-21T13:16:18.401Z,10.60
2023-03-21T13:19:29.784Z,10.00
2023-03-21T13:22:33.892Z,9.70
2023-03-21T13:25:44.677Z,9.50
2023-03-21T13:28:51.669Z,9.40
2023-03-21T13:31:57.613Z,9.40
2023-03-21T13:35:04.787Z,9.40
2023-03-21T13:38:16.440Z,9.50
2023-03-21T13:41:22.220Z,9.50
2023-03-21T13:44:37.216Z,9.60
2023-03-21T13:47:54.305Z,9.70
2023-03-21T13:51:02.285Z,9.70
2023-03-21T13:54:17.834Z,9.90
2023-03-21T13:57:40.699Z,10.00
2023-03-21T14:00:46.175Z,10.10
2023-03-21T14:03:49.572Z,10.20
2023-03-21T14:06:58.356Z,10.20
2023-03-21T14:10:05.097Z,10.00
2023-03-21T14:13:10.842Z,9.90
2023-03-21T14:16:17.555Z,9.80
2023-03-21T14:19:21.008Z,9.80
2023-03-21T14:22:24.678Z,9.70
2023-03-21T14:25:40.834Z,9.70
2023-03-21T14:28:50.473Z,9.70
2023-03-21T14:31:56.986Z,9.70
2023-03-21T14:35:02.604Z,9.60
2023-03-21T14:38:08.948Z,9.60
2023-03-21T14:41:23.320Z,9.60
2023-03-21T14:44:28.905Z,9.60
2023-03-21T14:47:33.497Z,9.60
2023-03-21T14:50:41.954Z,9.60
2023-03-21T14:53:46.078Z,9.50
2023-03-21T14:56:53.286Z,9.40
2023-03-21T15:00:00.196Z,9.30
2023-03-21T15:03:05.509Z,9.30
2023-03-21T15:06:14.903Z,9.20
2023-03-21T15:09:20.284Z,9.20
2023-03-21T15:12:23.512Z,9.30
2023-03-21T15:15:29.361Z,9.40
2023-03-21T15:18:35.707Z,9.50
2023-03-21T15:21:41.527Z,9.50
2023-03-21T15:24:48.879Z,9.40
2023-03-21T15:27:52.207Z,9.30
2023-03-21T15:30:56.431Z,9.10
2023-03-21T15:34:01.808Z,9.00
2023-03-21T15:37:08.608Z,8.90
2023-03-21T15:40:20.364Z,8.70
2023-03-21T15:43:23.682Z,8.60
2023-03-21T15:46:35.097Z,8.60
2023-03-21T15:49:42.296Z,8.50
2023-03-21T15:52:45.820Z,8.50
2023-03-21T15:55:51.974Z,8.50
2023-03-21T15:58:55.267Z,8.40
2023-03-21T16:01:58.938Z,8.30
2023-03-21T16:05:22.178Z,8.30
2023-03-21T16:08:29.500Z,8.30
2023-03-21T16:11:39.589Z,8.30
2023-03-21T16:14:43.705Z,8.30
2023-03-21T16:17:54.105Z,8.30
2023-03-21T16:20:59.352Z,8.20
2023-03-21T16:24:03.161Z,8.20
2023-03-21T16:27:07.197Z,8.20
2023-03-21T16:30:13.835Z,8.20
2023-03-21T16:33:17.393Z,8.10
2023-03-21T16:36:24.980Z,8.20
2023-03-21T16:39:28.831Z,8.30
2023-03-21T16:42:32.141Z,8.00
2023-03-21T16:45:35.913Z,8.00
2023-03-21T16:48:39.361Z,8.00
2023-03-21T16:51:44.113Z,7.90
2023-03-21T16:54:47.401Z,7.90
2023-03-21T16:57:52.245Z,7.90
2023-03-21T17:00:55.571Z,7.80
2023-03-21T17:03:59.555Z,7.70
2023-03-21T17:07:04.540Z,7.70
2023-03-21T17:10:23.855Z,7.70
2023-03-21T17:13:27.191Z,7.60
2023-03-21T17:16:30.586Z,7.60
2023-03-21T17:19:33.939Z,7.50
2023-03-21T17:22:38.600Z,7.50
2023-03-21T17:25:41.847Z,7.50
2023-03-21T17:28:45.226Z,7.40
2023-03-21T17:31:50.738Z,7.40
2023-03-21T17:34:55.005Z,7.30
2023-03-21T17:37:59.683Z,7.30
2023-03-21T17:41:02.902Z,7.30
2023-03-21T17:44:06.508Z,7.20
2023-03-21T17:47:11.150Z,7.10
2023-03-21T17:50:21.524Z,7.10
2023-03-21T17:53:26.661Z,7.00
2023-03-21T17:56:31.647Z,6.90
2023-03-21T17:59:34.908Z,6.80
2023-03-21T18:02:38.227Z,6.80
2023-03-21T18:05:41.800Z,6.70
2023-03-21T18:08:49.240Z,6.60
2023-03-21T18:11:52.798Z,6.60
2023-03-21T18:14:56.885Z,6.50
2023-03-21T18:18:00.740Z,6.40
2023-03-21T18:21:04.282Z,6.20
2023-03-21T18:24:09.335Z,6.20
2023-03-21T18:27:12.900Z,6.10
2023-03-21T18:30:37.433Z,6.10
2023-03-21T18:33:45.868Z,6.10
2023-03-21T18:36:51.030Z,6.10
2023-03-21T18:39:56.247Z,6.10
2023-03-21T18:43:51.645Z,6.10
2023-03-21T18:46:23.410Z,6.10
2023-03-21T18:50:09.766Z,6.20
2023-03-21T18:52:50.318Z,6.20
2023-03-21T18:55:55.268Z,6.20
2023-03-21T18:58:59.386Z,6.20
2023-03-21T19:02:03.284Z,6.30
2023-03-21T19:05:07.164Z,6.30
2023-03-21T19:08:10.830Z,6.40
2023-03-21T19:11:16.014Z,6.50
2023-03-21T19:14:19.610Z,6.50
2023-03-21T19:18:26.186Z,6.50
2023-03-21T19:20:47.381Z,6.70
2023-03-21T19:24:22.937Z,6.80
2023-03-21T19:27:15.799Z,6.80
2023-03-21T19:30:19.706Z,6.80
2023-03-21T19:33:24.539Z,6.80
2023-03-21T19:36:27.909Z,6.80
2023-03-21T19:39:31.297Z,6.80
2023-03-21T19:42:36.611Z,6.80
2023-03-21T19:45:39.926Z,6.80
2023-03-21T19:48:44.819Z,6.80
2023-03-21T19:51:48.529Z,6.70
2023-03-21T19:54:53.646Z,6.70
2023-03-21T19:57:58.700Z,6.70
2023-03-21T20:01:01.992Z,6.70
2023-03-21T20:04:05.286Z,6.80
2023-03-21T20:07:08.555Z,6.70
2023-03-21T20:10:12.100Z,6.70
2023-03-21T20:13:16.879Z,6.60
2023-03-21T20:16:20.666Z,6.50
2023-03-21T20:19:25.086Z,6.40
2023-03-21T20:22:58.923Z,6.30
2023-03-21T20:25:54.473Z,6.10
2023-03-21T20:29:25.112Z,5.90
2023-03-21T20:32:22.842Z,5.80
2023-03-21T20:36:10.350Z,5.60
2023-03-21T20:38:50.717Z,5.50
2023-03-21T20:41:54.794Z,5.40
2023-03-21T20:45:01.096Z,5.30
2023-03-21T20:48:04.853Z,5.20
2023-03-21T20:52:14.888Z,5.10
2023-03-21T20:54:34.875Z,5.00
2023-03-21T20:57:39.091Z,4.80
2023-03-21T21:00:44.918Z,4.70
2023-03-21T21:03:49.466Z,4.60
2023-03-21T21:06:52.721Z,4.60
2023-03-21T21:09:56.015Z,4.60
2023-03-21T21:12:59.462Z,4.60
2023-03-21T21:16:05.068Z,4.70
2023-03-21T21:19:08.710Z,4.80
2023-03-21T21:22:12.024Z,4.90
2023-03-21T21:25:16.250Z,4.90
2023-03-21T21:28:30.398Z,5.00
2023-03-21T21:31:35.783Z,5.10
2023-03-21T21:34:39.049Z,5.10
2023-03-21T21:37:42.922Z,5.20
2023-03-21T21:40:46.599Z,5.20
2023-03-21T21:43:49.866Z,5.20
2023-03-21T21:46:54.594Z,5.30
2023-03-21T21:49:58.237Z,5.30
2023-03-21T21:53:03.824Z,5.30
2023-03-21T21:56:08.926Z,5.40
2023-03-21T21:59:16.319Z,5.40
2023-03-21T22:02:23.814Z,5.50
2023-03-21T22:05:28.141Z,5.60
2023-03-21T22:08:31.987Z,5.70
2023-03-21T22:11:35.413Z,5.70
2023-03-21T22:14:38.962Z,5.70
2023-03-21T22:17:46.059Z,5.70
2023-03-21T22:20:49.438Z,5.70
2023-03-21T22:23:52.878Z,5.70
2023-03-21T22:26:58.258Z,5.70
2023-03-21T22:30:04.844Z,5.70
2023-03-21T22:33:10.279Z,5.70
2023-03-21T22:36:13.772Z,5.70
2023-03-21T22:39:17.754Z,5.70
2023-03-21T22:42:21.158Z,5.80
2023-03-21T22:45:24.455Z,5.80
2023-03-21T22:48:30.109Z,5.80
2023-03-21T22:51:33.311Z,5.80
2023-03-21T22:54:36.726Z,5.80
2023-03-21T22:57:39.936Z,5.80
2023-03-21T23:00:43.158Z,5.80
2023-03-21T23:03:47.820Z,5.80
2023-03-21T23:06:51.251Z,5.80
2023-03-21T23:09:54.609Z,5.70
2023-03-21T23:12:57.810Z,5.70
2023-03-21T23:16:05.047Z,5.70
2023-03-21T23:19:10.371Z,5.70
2023-03-21T23:22:13.576Z,5.80
2023-03-21T23:25:16.997Z,5.80
2023-03-21T23:28:20.429Z,5.90
2023-03-21T23:31:25.911Z,5.90
2023-03-21T23:34:30.460Z,5.90
2023-03-21T23:37:33.630Z,5.90
2023-03-21T23:40:40.237Z,6.00
2023-03-21T23:43:44.216Z,6.00
2023-03-21T23:46:47.330Z,6.00
2023-03-21T23:49:52.855Z,6.00
2023-03-21T23:52:56.002Z,6.00
2023-03-21T23:56:01.707Z,5.90
2023-03-21T23:59:06.179Z,5.90
